Newhall, IA (52315)

4:56 AM CDT on May 27, 2015 (GMT -0500)
Ridgeview Estates | | Change Station
CLOSE
Current Station
Personal Weather Station
Location: Atkins, IA
Elevation: 860 ft
Nearby Weather Stations

Elev 860 ft 41.99 °N, 91.85 °W | Updated 58 seconds ago

Mostly Cloudy
Mostly Cloudy
60.1 °F
Feels Like 60.1 °F
N
3.1
Wind Variable Wind from West
Gusts 4.7 mph

Today
High -- | Low -- °F
--% Chance of Precip.
Yesterday
High -- | Low -- °F
Precip. -- in
5:37 AM 8:32 PM
Waxing Gibbous, 66% visible
Pressure 29.89 in
Visibility 6.0 miles
Clouds Few 1100 ft
Few 2100 ft
Overcast 3300 ft
Dew Point 58 °F
Humidity 91%
Rainfall 0.05 in
Snow Depth Not available.
UV 0 out of 12
Pollen 6.10 out of 12
Air Quality Not available.
Flu Activity Sporadic
SPECI KCID 270925Z AUTO 28008KT 6SM -RA BR FEW011 FEW021 OVC033 16/16 A2989 RMK AO2 RAB0859 P0002 T01560156

More Conditions Fewer Conditions

Pressure 29.89 in
Visibility 6.0 miles
Clouds Few 1100 ft
Few 2100 ft
Overcast 3300 ft
Dew Point 58 °F
Humidity 91%
Rainfall 0.05 in
Snow Depth Not available.
UV 0 out of 12
Pollen 6.10 out of 12
Air Quality Not available.
Flu Activity Sporadic
SPECI KCID 270925Z AUTO 28008KT 6SM -RA BR FEW011 FEW021 OVC033 16/16 A2989 RMK AO2 RAB0859 P0002 T01560156

More Conditions Fewer Conditions

10-Day Weather Forecast

Almanac

Astronomy

May. 27, 2015 Rise Set
Actual Time
Civil Twilight
Nautical Twilight
Astronomical Twilight
Moon
Length of Visible Light
Length of Day
Tomorrow will be .
, % of the Moon is Illuminated

Today's Extremes

State Highs State Lows

Community

WunderPhotos

Upload Photos

1,824,635 photos uploaded!

WunderBlogs® & News

Nearby

Air Quality

  Air Quality AQ Index Pollutant
Not available.

Snow Depth

Station Depth Elevation

Earthquake Activity

City Distance Mag. Time & Date
Minimum magnitude displayed is 2.5.

Coastal Water Temperatures

Place Temperature

Stations

Nearby Weather Stations

Station Location Temp. Windchill Dew Point Humidity Wind Precip. Elev Updated Type